createdAt,value
2022-10-18T00:02:58.062Z,35.78
2022-10-18T00:07:59.835Z,23.92
2022-10-18T00:13:01.243Z,22.45
2022-10-18T00:18:03.143Z,27.33
2022-10-18T00:23:04.572Z,23.67
2022-10-18T00:28:06.047Z,24.45
2022-10-18T00:33:07.475Z,24.83
2022-10-18T00:38:08.854Z,41.83
2022-10-18T00:43:15.897Z,39.67
2022-10-18T00:48:20.773Z,36.00
2022-10-18T00:53:23.633Z,30.63
2022-10-18T00:58:25.400Z,28.45
2022-10-18T01:03:26.873Z,28.38
2022-10-18T01:08:44.904Z,26.60
2022-10-18T01:14:01.840Z,25.98
2022-10-18T01:19:12.161Z,22.80
2022-10-18T01:24:36.824Z,29.50
2022-10-18T01:29:53.406Z,30.25
2022-10-18T01:40:03.588Z,25.13
2022-10-18T01:45:08.063Z,24.60
2022-10-18T01:50:09.723Z,24.40
2022-10-18T01:55:11.246Z,22.38
2022-10-18T02:00:17.237Z,23.30
2022-10-18T02:05:33.189Z,22.55
2022-10-18T02:10:38.334Z,26.67
2022-10-18T02:15:43.258Z,22.00
2022-10-18T02:20:45.541Z,22.48
2022-10-18T02:25:47.161Z,21.27
2022-10-18T02:31:30.369Z,21.50
2022-10-18T02:36:38.630Z,19.60
2022-10-18T02:41:40.729Z,21.08
2022-10-18T02:46:42.948Z,19.58
2022-10-18T02:51:44.465Z,14.23
2022-10-18T02:56:45.904Z,14.48
2022-10-18T03:01:47.375Z,15.02
2022-10-18T03:06:48.851Z,11.98
2022-10-18T03:11:50.254Z,11.75
2022-10-18T03:16:52.699Z,13.95
2022-10-18T03:21:54.195Z,13.23
2022-10-18T03:26:55.805Z,14.57
2022-10-18T03:31:57.225Z,15.35
2022-10-18T03:37:02.060Z,17.02
2022-10-18T03:42:06.228Z,18.48
2022-10-18T03:47:07.669Z,17.90
2022-10-18T03:52:09.132Z,17.05
2022-10-18T03:57:10.556Z,14.63
2022-10-18T04:02:12.091Z,14.48
2022-10-18T04:07:13.515Z,15.00
2022-10-18T04:12:14.926Z,17.05
2022-10-18T04:17:16.310Z,16.95
2022-10-18T04:22:18.055Z,17.88
2022-10-18T04:27:19.527Z,14.77
2022-10-18T04:32:20.951Z,15.38
2022-10-18T04:37:22.401Z,13.70
2022-10-18T04:42:24.483Z,14.15
2022-10-18T04:47:25.916Z,12.73
2022-10-18T04:52:27.372Z,13.57
2022-10-18T04:57:28.913Z,13.77
2022-10-18T05:02:30.798Z,16.02
2022-10-18T05:07:32.704Z,16.27
2022-10-18T05:12:34.596Z,16.27
2022-10-18T05:17:36.632Z,15.05
2022-10-18T05:22:38.211Z,15.52
2022-10-18T05:27:39.610Z,15.07
2022-10-18T05:32:41.102Z,14.07
2022-10-18T05:37:42.568Z,15.32
2022-10-18T05:42:43.984Z,17.90
2022-10-18T05:47:45.379Z,14.80
2022-10-18T05:52:46.784Z,10.85
2022-10-18T05:57:51.792Z,12.80
2022-10-18T06:02:55.268Z,14.10
2022-10-18T06:07:59.583Z,11.48
2022-10-18T06:13:01.042Z,12.85
2022-10-18T06:18:02.466Z,14.30
2022-10-18T06:23:03.938Z,20.77
2022-10-18T06:28:07.945Z,19.98
2022-10-18T06:33:14.273Z,23.65
2022-10-18T06:38:15.713Z,28.67
2022-10-18T06:43:21.096Z,24.88
2022-10-18T06:48:23.659Z,21.48
2022-10-18T06:53:26.589Z,17.27
2022-10-18T06:58:29.046Z,18.33
2022-10-18T07:03:30.539Z,16.13
2022-10-18T07:08:32.461Z,15.35
2022-10-18T07:13:34.839Z,15.98
2022-10-18T07:18:38.654Z,15.27
2022-10-18T07:23:43.692Z,19.90
2022-10-18T07:28:47.708Z,16.85
2022-10-18T07:33:49.275Z,16.35
2022-10-18T07:38:52.293Z,14.98
2022-10-18T07:43:53.748Z,13.80
2022-10-18T07:48:55.922Z,14.32
2022-10-18T07:53:57.313Z,13.18
2022-10-18T07:58:58.789Z,12.68
2022-10-18T08:04:06.062Z,11.25
2022-10-18T08:09:08.501Z,9.95
2022-10-18T08:14:09.945Z,9.18
2022-10-18T08:19:11.450Z,8.88
2022-10-18T08:24:12.908Z,12.98
2022-10-18T08:29:24.203Z,12.35
2022-10-18T08:34:27.311Z,14.43
2022-10-18T08:39:29.042Z,12.23
2022-10-18T08:44:32.642Z,13.40
2022-10-18T08:49:51.062Z,13.05
2022-10-18T08:55:00.384Z,12.48
2022-10-18T09:00:14.689Z,13.02
2022-10-18T09:05:22.896Z,13.48
2022-10-18T09:10:49.248Z,13.43
2022-10-18T09:15:59.136Z,10.90
2022-10-18T09:21:17.820Z,8.68
2022-10-18T09:26:23.359Z,11.50
2022-10-18T09:31:42.319Z,6.93
2022-10-18T09:36:45.218Z,7.13
2022-10-18T09:42:26.878Z,4.72
2022-10-18T09:47:45.406Z,4.30
2022-10-18T09:52:55.506Z,5.03
2022-10-18T09:58:01.666Z,4.53
2022-10-18T10:03:11.070Z,3.42
2022-10-18T10:08:12.661Z,3.22
2022-10-18T10:13:22.904Z,2.17
2022-10-18T10:18:31.276Z,1.45
2022-10-18T10:23:39.252Z,1.98
2022-10-18T10:28:48.595Z,2.08
2022-10-18T10:34:19.499Z,2.38
2022-10-18T10:39:24.001Z,2.00
2022-10-18T10:44:29.924Z,1.83
2022-10-18T10:49:51.635Z,1.58
2022-10-18T10:55:05.450Z,2.40
2022-10-18T11:00:36.671Z,2.20
2022-10-18T11:06:05.291Z,2.60
2022-10-18T11:11:27.745Z,3.25
2022-10-18T11:16:50.731Z,2.35
2022-10-18T11:21:53.483Z,2.78
2022-10-18T11:27:10.168Z,2.10
2022-10-18T11:33:02.831Z,2.83
2022-10-18T11:38:14.720Z,1.90
2022-10-18T11:43:44.303Z,1.30
2022-10-18T11:49:07.368Z,1.30
2022-10-18T11:54:08.742Z,1.58
2022-10-18T11:59:38.504Z,1.70
2022-10-18T12:04:58.457Z,1.80
2022-10-18T12:10:09.888Z,1.35
2022-10-18T12:15:23.702Z,1.55
2022-10-18T12:20:31.273Z,1.73
2022-10-18T12:25:37.065Z,1.10
2022-10-18T12:35:58.711Z,1.08
2022-10-18T12:41:00.949Z,1.55
2022-10-18T12:46:13.305Z,1.10
2022-10-18T12:51:21.839Z,1.23
2022-10-18T12:56:29.297Z,1.00
2022-10-18T13:01:50.790Z,1.83
2022-10-18T13:06:58.899Z,1.23
2022-10-18T13:12:09.526Z,1.42
2022-10-18T13:17:16.875Z,1.95
2022-10-18T13:22:54.214Z,1.00
2022-10-18T13:28:14.038Z,2.08
2022-10-18T13:33:30.563Z,2.10
2022-10-18T13:39:04.417Z,0.85
2022-10-18T13:44:23.044Z,1.05
2022-10-18T13:49:40.922Z,1.10
2022-10-18T13:55:04.147Z,1.35
2022-10-18T14:00:44.854Z,0.88
2022-10-18T14:06:11.613Z,1.10
2022-10-18T14:11:16.101Z,0.85
2022-10-18T14:16:39.310Z,1.00
2022-10-18T14:21:47.725Z,0.52
2022-10-18T14:27:15.834Z,0.60
2022-10-18T14:32:29.697Z,1.05
2022-10-18T14:37:36.386Z,1.15
2022-10-18T14:42:47.972Z,1.40
2022-10-18T14:47:49.508Z,1.27
2022-10-18T14:52:51.071Z,0.95
2022-10-18T14:57:52.730Z,0.88
2022-10-18T15:02:54.413Z,0.77
2022-10-18T15:07:59.561Z,0.52
2022-10-18T15:13:09.901Z,0.60
2022-10-18T15:18:26.208Z,0.73
2022-10-18T15:23:31.313Z,1.13
2022-10-18T15:28:36.533Z,2.05
2022-10-18T15:33:38.004Z,1.00
2022-10-18T15:38:39.593Z,1.13
2022-10-18T15:43:41.005Z,1.20
2022-10-18T15:48:42.596Z,1.23
2022-10-18T15:53:51.208Z,1.83
2022-10-18T15:58:53.767Z,1.50
2022-10-18T16:08:56.636Z,1.30
2022-10-18T16:14:00.423Z,1.55
2022-10-18T16:19:02.613Z,1.95
2022-10-18T16:24:05.173Z,2.33
2022-10-18T16:29:07.623Z,1.80
2022-10-18T16:34:11.225Z,1.48
2022-10-18T16:39:15.816Z,1.73
2022-10-18T16:44:19.075Z,1.90
2022-10-18T16:49:24.086Z,2.25
2022-10-18T16:54:26.040Z,1.53
2022-10-18T16:59:29.944Z,1.98
2022-10-18T17:04:31.441Z,4.28
2022-10-18T17:09:35.008Z,4.25
2022-10-18T17:14:36.933Z,2.38
2022-10-18T17:19:38.366Z,1.88
2022-10-18T17:24:39.740Z,2.13
2022-10-18T17:29:41.217Z,1.30
2022-10-18T17:34:42.664Z,1.50
2022-10-18T17:39:44.221Z,1.92
2022-10-18T17:44:46.176Z,2.00
2022-10-18T17:49:47.821Z,1.50
2022-10-18T17:54:49.293Z,1.60
2022-10-18T17:59:50.685Z,1.45
2022-10-18T18:04:54.481Z,1.33
2022-10-18T18:09:56.048Z,1.50
2022-10-18T18:14:57.480Z,1.42
2022-10-18T18:19:58.884Z,3.67
2022-10-18T18:25:00.289Z,3.03
2022-10-18T18:30:01.677Z,2.00
2022-10-18T18:35:03.484Z,1.63
2022-10-18T18:40:05.368Z,2.17
2022-10-18T18:45:07.144Z,2.00
2022-10-18T18:50:12.800Z,2.55
2022-10-18T18:55:17.411Z,2.37
2022-10-18T19:00:21.740Z,1.88
2022-10-18T19:05:28.676Z,2.95
2022-10-18T19:10:30.696Z,2.40
2022-10-18T19:15:32.259Z,2.67
2022-10-18T19:20:36.823Z,2.63
2022-10-18T19:25:39.092Z,1.70
2022-10-18T19:30:49.798Z,2.58
2022-10-18T19:35:54.603Z,2.13
2022-10-18T19:40:57.490Z,2.78
2022-10-18T19:46:06.543Z,2.28
2022-10-18T19:51:09.613Z,2.38
2022-10-18T19:56:18.514Z,2.65
2022-10-18T20:01:20.758Z,2.58
2022-10-18T20:06:27.053Z,2.08
2022-10-18T20:11:35.489Z,1.90
2022-10-18T20:16:42.672Z,1.90
2022-10-18T20:21:44.292Z,2.85
2022-10-18T20:26:49.064Z,2.60
2022-10-18T20:31:50.735Z,2.30
2022-10-18T20:36:55.533Z,5.07
2022-10-18T20:41:58.742Z,2.58
2022-10-18T20:47:07.655Z,3.00
2022-10-18T20:52:09.433Z,2.65
2022-10-18T20:57:11.875Z,2.30
2022-10-18T21:02:13.988Z,3.42
2022-10-18T21:07:17.064Z,1.95
2022-10-18T21:12:18.805Z,1.38
2022-10-18T21:17:22.073Z,1.40
2022-10-18T21:22:25.939Z,2.00
2022-10-18T21:27:27.752Z,2.05
2022-10-18T21:32:33.444Z,2.03
2022-10-18T21:37:35.131Z,2.17
2022-10-18T21:42:36.733Z,2.53
2022-10-18T21:47:39.257Z,3.80
2022-10-18T21:52:40.761Z,2.80
2022-10-18T21:57:50.641Z,2.35
2022-10-18T22:03:09.564Z,2.58
2022-10-18T22:08:11.091Z,2.42
2022-10-18T22:13:12.611Z,2.50
2022-10-18T22:18:14.146Z,1.92
2022-10-18T22:23:16.885Z,1.88
2022-10-18T22:28:18.797Z,2.50
2022-10-18T22:33:21.309Z,1.92
2022-10-18T22:38:23.190Z,1.45
2022-10-18T22:43:24.644Z,1.88
2022-10-18T22:48:26.243Z,1.30
2022-10-18T22:53:28.045Z,1.55
2022-10-18T22:58:30.033Z,1.67
2022-10-18T23:03:33.049Z,1.38
2022-10-18T23:08:34.732Z,2.78
2022-10-18T23:13:42.532Z,1.98
2022-10-18T23:18:54.813Z,1.90
2022-10-18T23:23:57.203Z,2.22
2022-10-18T23:29:00.743Z,1.83
2022-10-18T23:34:04.928Z,1.48
2022-10-18T23:39:15.009Z,2.25
2022-10-18T23:44:16.666Z,1.70
2022-10-18T23:49:18.796Z,1.80
2022-10-18T23:54:23.423Z,2.90
2022-10-18T23:59:26.162Z,1.60
